Time;durP1;ratioP1;P1;durP2;ratioP2;P2;SDS_P1;SDS_P2;PMS_P1;PMS_P2;Temp;Humidity;BMP_temperature;BMP_pressure;BME280_temperature;BME280_humidity;BME280_pressure;Samples;Min_cycle;Max_cycle;Signal;HPM_P1;HPM_P2
2022/10/15 00:00:42;;;;;;;44.10;34.50;;;17.20;99.90;;;;;;4591679;19;20010;-28
2022/10/15 00:02:33;;;;;;;40.28;34.53;;;17.20;99.90;;;;;;4593441;19;20029;-28
2022/10/15 00:04:04;;;;;;;40.05;34.08;;;17.30;99.90;;;;;;4591409;19;20014;-28
2022/10/15 00:05:39;;;;;;;39.03;33.45;;;17.20;99.90;;;;;;4592055;19;20031;-28
2022/10/15 00:07:10;;;;;;;37.10;32.72;;;17.20;99.90;;;;;;4590349;19;20074;-28
2022/10/15 00:08:41;;;;;;;38.72;32.47;;;17.20;99.90;;;;;;4593139;19;20035;-28
2022/10/15 00:10:13;;;;;;;43.13;33.80;;;17.20;99.90;;;;;;4591507;19;20011;-28
2022/10/15 00:11:44;;;;;;;38.28;31.83;;;17.20;99.90;;;;;;4591051;19;20011;-28
2022/10/15 00:13:14;;;;;;;39.40;32.58;;;17.20;99.90;;;;;;4591458;19;20787;-27
2022/10/15 00:14:46;;;;;;;38.05;31.88;;;17.20;99.90;;;;;;4593711;19;20010;-28
2022/10/15 00:16:20;;;;;;;36.25;31.55;;;17.20;99.90;;;;;;4590640;19;20015;-28
2022/10/15 00:17:51;;;;;;;38.58;31.60;;;17.20;99.90;;;;;;4590662;19;20531;-28
2022/10/15 00:19:22;;;;;;;38.85;30.70;;;17.20;99.90;;;;;;4593855;19;20095;-28
2022/10/15 00:20:53;;;;;;;39.80;31.85;;;17.20;99.90;;;;;;4592213;19;20015;-28
2022/10/15 00:22:24;;;;;;;37.30;30.48;;;17.20;99.90;;;;;;4592905;19;20014;-28
2022/10/15 00:23:55;;;;;;;39.42;31.52;;;17.20;99.90;;;;;;4589843;19;20018;-28
2022/10/15 00:25:27;;;;;;;37.83;30.70;;;17.20;99.90;;;;;;4592005;19;20013;-28
2022/10/15 00:26:58;;;;;;;37.33;30.80;;;17.20;99.90;;;;;;4591196;19;20018;-28
2022/10/15 00:28:29;;;;;;;34.85;30.10;;;17.20;99.90;;;;;;4590700;19;20532;-27
2022/10/15 00:30:02;;;;;;;39.40;32.17;;;17.20;99.90;;;;;;4592217;19;20011;-27
2022/10/15 00:31:33;;;;;;;35.53;30.63;;;17.20;99.90;;;;;;4591715;19;20015;-28
2022/10/15 00:33:04;;;;;;;37.50;31.77;;;17.20;99.90;;;;;;4592942;19;20044;-28
2022/10/15 00:34:35;;;;;;;38.42;32.38;;;17.20;99.90;;;;;;4593253;19;20003;-28
2022/10/15 00:36:09;;;;;;;36.15;30.75;;;17.20;99.90;;;;;;4591949;19;20011;-28
2022/10/15 00:37:42;;;;;;;35.65;31.33;;;17.20;99.90;;;;;;4592778;19;20014;-28
2022/10/15 00:39:14;;;;;;;36.80;30.73;;;17.20;99.90;;;;;;4591914;19;20018;-28
2022/10/15 00:40:45;;;;;;;36.85;31.00;;;17.10;99.90;;;;;;4591652;19;20361;-28
2022/10/15 00:42:16;;;;;;;42.20;33.70;;;17.20;99.90;;;;;;4591246;19;20018;-28
2022/10/15 00:43:52;;;;;;;41.78;34.83;;;17.20;99.90;;;;;;4589141;19;21936;-28
2022/10/15 00:45:23;;;;;;;41.75;33.70;;;17.20;99.90;;;;;;4592358;19;20484;-27
2022/10/15 00:47:00;;;;;;;37.50;32.10;;;17.20;99.90;;;;;;4590293;19;20157;-28
2022/10/15 00:48:31;;;;;;;38.70;33.20;;;17.20;99.90;;;;;;4591156;19;20480;-28
2022/10/15 00:50:11;;;;;;;41.95;33.80;;;17.20;99.90;;;;;;4590632;19;20027;-28
2022/10/15 00:51:48;;;;;;;43.38;34.83;;;17.20;99.90;;;;;;4589876;19;20026;-28
2022/10/15 00:53:19;;;;;;;46.20;36.05;;;17.20;99.90;;;;;;4590967;19;20014;-27
2022/10/15 00:55:00;;;;;;;44.30;34.05;;;17.10;99.90;;;;;;4587504;19;20096;-28
2022/10/15 00:56:31;;;;;;;43.60;35.38;;;17.20;99.90;;;;;;4591040;19;20014;-28
2022/10/15 00:58:27;;;;;;;46.50;34.47;;;17.10;99.90;;;;;;4590687;19;20010;-28
2022/10/15 01:00:00;;;;;;;46.47;35.38;;;17.10;99.90;;;;;;4590185;19;20017;-28
2022/10/15 01:01:31;;;;;;;45.15;34.95;;;17.10;99.90;;;;;;4590302;19;20062;-28
2022/10/15 01:03:03;;;;;;;47.67;35.55;;;17.10;99.90;;;;;;4588847;19;20377;-28
2022/10/15 01:06:23;;;;;;;54.70;37.97;;;17.10;99.90;;;;;;4590734;19;20359;-28
2022/10/15 01:07:54;;;;;;;45.17;36.33;;;17.10;99.90;;;;;;4589966;19;20681;-27
2022/10/15 01:09:26;;;;;;;46.28;36.70;;;17.10;99.90;;;;;;4588486;19;20013;-27
2022/10/15 01:10:57;;;;;;;;;;;17.10;99.90;;;;;;4593033;19;20018;-28
2022/10/15 01:12:48;;;;;;;46.97;34.25;;;17.10;99.90;;;;;;4588137;19;19994;-28
2022/10/15 01:14:48;;;;;;;43.03;33.92;;;17.10;99.90;;;;;;4588721;19;20025;-28
2022/10/15 01:16:35;;;;;;;44.00;34.03;;;17.10;99.90;;;;;;4589216;19;20050;-28
2022/10/15 01:18:13;;;;;;;41.28;32.80;;;17.10;99.90;;;;;;4589973;19;20015;-28
2022/10/15 01:19:56;;;;;;;39.38;32.42;;;17.10;99.90;;;;;;4590035;19;20349;-28
2022/10/15 01:21:43;;;;;;;39.22;32.58;;;17.10;99.90;;;;;;4591846;19;20022;-27
2022/10/15 01:23:23;;;;;;;39.80;32.00;;;17.10;99.90;;;;;;4589649;19;20398;-28
2022/10/15 01:25:09;;;;;;;38.33;30.67;;;17.10;99.90;;;;;;4591226;19;20049;-28
2022/10/15 01:26:40;;;;;;;34.58;29.45;;;17.10;99.90;;;;;;4590232;19;20014;-29
2022/10/15 01:28:49;;;;;;;34.58;28.88;;;17.10;99.90;;;;;;4589570;19;20038;-27
2022/10/15 01:30:29;;;;;;;34.85;29.40;;;17.10;99.90;;;;;;4590856;19;20081;-28
2022/10/15 01:32:02;;;;;;;35.97;30.42;;;17.00;99.90;;;;;;4590280;19;20363;-28
2022/10/15 01:33:45;;;;;;;33.60;29.33;;;17.10;99.90;;;;;;4589773;19;20026;-27
2022/10/15 01:35:31;;;;;;;35.38;29.67;;;17.00;99.90;;;;;;4591067;19;20021;-28
2022/10/15 01:37:06;;;;;;;36.65;30.92;;;17.00;99.90;;;;;;4588143;19;20018;-28
2022/10/15 01:38:58;;;;;;;36.08;30.17;;;17.00;99.90;;;;;;4589670;19;20026;-28
2022/10/15 01:40:33;;;;;;;35.30;29.77;;;17.00;99.90;;;;;;4590792;19;20018;-27
2022/10/15 01:42:07;;;;;;;34.88;29.65;;;17.00;99.90;;;;;;4587643;19;20018;-27
2022/10/15 01:43:45;;;;;;;33.47;29.73;;;17.00;99.90;;;;;;4588566;19;20018;-28
2022/10/15 01:45:24;;;;;;;38.20;30.10;;;17.00;99.90;;;;;;4587382;19;20484;-28
2022/10/15 01:47:01;;;;;;;33.47;28.10;;;17.00;99.90;;;;;;4589042;19;20013;-29
2022/10/15 01:48:32;;;;;;;34.63;29.80;;;17.00;99.90;;;;;;4587990;19;20078;-28
2022/10/15 01:50:03;;;;;;;33.88;29.25;;;17.00;99.90;;;;;;4587262;19;20014;-27
2022/10/15 01:51:35;;;;;;;33.03;28.20;;;17.00;99.90;;;;;;4589157;19;20014;-28
2022/10/15 01:53:06;;;;;;;34.03;28.92;;;17.00;99.90;;;;;;4587749;19;20053;-28
2022/10/15 01:54:38;;;;;;;33.30;28.88;;;17.00;99.90;;;;;;4587839;19;20015;-28
2022/10/15 01:56:11;;;;;;;31.13;27.38;;;17.00;99.90;;;;;;4588390;19;20070;-27
2022/10/15 01:57:43;;;;;;;34.35;27.92;;;17.00;99.90;;;;;;4589093;19;20550;-28
2022/10/15 01:59:16;;;;;;;31.92;28.45;;;17.00;99.90;;;;;;4586603;19;20054;-28
2022/10/15 02:00:47;;;;;;;31.88;27.30;;;17.00;99.90;;;;;;4586034;19;20007;-28
2022/10/15 02:02:18;;;;;;;32.78;27.38;;;17.00;99.90;;;;;;4588755;19;20342;-27
2022/10/15 02:03:51;;;;;;;35.05;28.80;;;17.00;99.90;;;;;;4586395;19;20504;-27
2022/10/15 02:05:25;;;;;;;32.92;28.83;;;17.00;99.90;;;;;;4585735;19;20094;-28
2022/10/15 02:07:25;;;;;;;33.22;29.02;;;17.00;99.90;;;;;;4584413;19;20006;-28
2022/10/15 02:09:06;;;;;;;34.22;28.95;;;17.00;99.90;;;;;;4587298;19;20127;-28
2022/10/15 02:10:49;;;;;;;32.47;28.02;;;17.00;99.90;;;;;;4587865;19;20050;-28
2022/10/15 02:12:48;;;;;;;35.60;29.65;;;17.00;99.90;;;;;;4588843;19;20024;-28
2022/10/15 02:14:28;;;;;;;34.08;27.67;;;17.00;99.90;;;;;;4588943;19;20022;-28
2022/10/15 02:16:05;;;;;;;33.97;29.23;;;17.00;99.90;;;;;;4587897;19;20018;-28
2022/10/15 02:17:41;;;;;;;33.30;29.40;;;17.00;99.90;;;;;;4590244;19;20011;-28
2022/10/15 02:19:20;;;;;;;35.72;29.67;;;17.00;99.90;;;;;;4589782;19;20018;-28
2022/10/15 02:21:04;;;;;;;35.65;29.77;;;17.00;99.90;;;;;;4587595;19;20010;-28
2022/10/15 02:22:48;;;;;;;35.85;29.23;;;17.00;99.90;;;;;;4589027;19;20014;-28
2022/10/15 02:24:22;;;;;;;36.88;29.13;;;17.00;99.90;;;;;;4589919;19;20052;-27
2022/10/15 02:25:53;;;;;;;34.40;28.70;;;17.00;99.90;;;;;;4589960;19;20062;-27
2022/10/15 02:27:25;;;;;;;36.65;30.00;;;17.00;99.90;;;;;;4588592;19;20018;-28
2022/10/15 02:28:57;;;;;;;35.47;29.75;;;17.00;99.90;;;;;;4589210;19;20018;-27
2022/10/15 02:30:29;;;;;;;33.63;28.25;;;17.00;99.90;;;;;;4588462;19;20421;-27
2022/10/15 02:32:00;;;;;;;32.33;28.83;;;17.00;99.90;;;;;;4587249;19;20007;-27
2022/10/15 02:33:31;;;;;;;31.17;26.70;;;17.00;99.90;;;;;;4589476;19;20381;-28
2022/10/15 02:35:02;;;;;;;31.38;27.50;;;17.00;99.90;;;;;;4588411;19;20026;-27
2022/10/15 02:36:34;;;;;;;;;;;17.00;99.90;;;;;;4587007;19;20398;-28
2022/10/15 02:38:05;;;;;;;33.67;27.33;;;17.00;99.90;;;;;;4590556;19;19936;-28
2022/10/15 02:39:36;;;;;;;32.92;26.92;;;17.00;99.90;;;;;;4588620;19;20038;-28
2022/10/15 02:41:07;;;;;;;34.00;28.05;;;17.00;99.90;;;;;;4589668;19;20011;-27
2022/10/15 02:42:39;;;;;;;31.60;27.08;;;17.00;99.90;;;;;;4588683;19;20089;-28
2022/10/15 02:45:59;;;;;;;32.08;28.58;;;17.00;99.90;;;;;;4589724;19;20492;-28
2022/10/15 02:47:31;;;;;;;30.73;27.35;;;17.00;99.90;;;;;;4588227;19;20010;-28
2022/10/15 02:49:02;;;;;;;34.22;27.92;;;17.00;99.90;;;;;;4590285;19;20010;-28
2022/10/15 02:50:33;;;;;;;32.08;27.00;;;17.00;99.90;;;;;;4588930;19;20021;-27
2022/10/15 02:52:05;;;;;;;30.77;27.27;;;17.00;99.90;;;;;;4588642;19;20017;-28
2022/10/15 02:53:36;;;;;;;32.53;28.00;;;17.00;99.90;;;;;;4586638;19;20104;-28
2022/10/15 02:55:07;;;;;;;29.88;26.67;;;17.00;99.90;;;;;;4587891;19;20026;-28
2022/10/15 02:56:38;;;;;;;31.00;25.60;;;17.00;99.90;;;;;;4589704;19;20031;-28
2022/10/15 02:58:10;;;;;;;31.10;26.77;;;17.00;99.90;;;;;;4588695;19;20018;-28
2022/10/15 02:59:41;;;;;;;31.60;26.30;;;17.00;99.90;;;;;;4587947;19;20018;-29
2022/10/15 03:01:12;;;;;;;34.67;27.48;;;17.00;99.90;;;;;;4589059;19;20023;-27
2022/10/15 03:02:44;;;;;;;29.95;26.70;;;17.00;99.90;;;;;;4589285;19;20014;-28
2022/10/15 03:04:15;;;;;;;32.53;26.15;;;17.00;99.90;;;;;;4586893;19;20019;-28
2022/10/15 03:05:46;;;;;;;31.13;27.10;;;17.00;99.90;;;;;;4589003;19;20018;-28
2022/10/15 03:07:18;;;;;;;;;;;17.00;99.90;;;;;;4587169;19;20017;-28
2022/10/15 03:08:49;;;;;;;31.98;26.50;;;17.00;99.90;;;;;;4589593;19;19931;-27
2022/10/15 03:10:20;;;;;;;29.52;25.75;;;17.00;99.90;;;;;;4589628;19;20015;-28
2022/10/15 03:11:51;;;;;;;31.90;26.65;;;17.00;99.90;;;;;;4589110;19;20026;-28
2022/10/15 03:13:22;;;;;;;31.75;26.63;;;17.00;99.90;;;;;;4588324;19;20010;-27
2022/10/15 03:14:53;;;;;;;35.50;28.08;;;17.00;99.90;;;;;;4586443;19;20022;-28
2022/10/15 03:16:24;;;;;;;32.78;27.70;;;17.00;99.90;;;;;;4587136;19;20010;-28
2022/10/15 03:17:55;;;;;;;29.70;25.42;;;17.00;99.90;;;;;;4589114;19;20352;-28
2022/10/15 03:19:26;;;;;;;31.23;27.88;;;17.00;99.90;;;;;;4587940;19;20015;-28
2022/10/15 03:20:58;;;;;;;33.00;28.08;;;17.00;99.90;;;;;;4588866;19;20003;-28
2022/10/15 03:22:29;;;;;;;33.45;27.85;;;17.00;99.90;;;;;;4588720;19;20018;-27
2022/10/15 03:23:59;;;;;;;33.53;28.02;;;17.00;99.90;;;;;;4588733;19;20027;-28
2022/10/15 03:25:31;;;;;;;34.70;28.33;;;17.00;99.90;;;;;;4588360;19;20049;-28
2022/10/15 03:27:02;;;;;;;32.05;26.13;;;17.00;99.90;;;;;;4587978;19;20472;-28
2022/10/15 03:28:33;;;;;;;32.00;27.25;;;17.00;99.90;;;;;;4587610;19;20014;-28
2022/10/15 03:30:04;;;;;;;33.72;28.25;;;17.00;99.90;;;;;;4587824;19;20011;-27
2022/10/15 03:31:36;;;;;;;32.05;28.40;;;17.00;99.90;;;;;;4589020;19;20025;-28
2022/10/15 03:33:07;;;;;;;35.40;29.52;;;17.00;99.90;;;;;;4592660;19;20031;-28
2022/10/15 03:34:38;;;;;;;31.88;27.98;;;17.00;99.90;;;;;;4595019;19;20053;-28
2022/10/15 03:36:09;;;;;;;32.28;28.80;;;17.00;99.90;;;;;;4594041;19;20026;-27
2022/10/15 03:37:40;;;;;;;32.80;27.65;;;17.00;99.90;;;;;;4592873;19;20035;-28
2022/10/15 03:39:12;;;;;;;31.88;28.08;;;17.00;99.90;;;;;;4591932;19;20363;-28
2022/10/15 03:40:44;;;;;;;32.47;27.42;;;17.00;99.90;;;;;;4592960;19;20047;-28
2022/10/15 03:42:15;;;;;;;31.85;26.85;;;17.00;99.90;;;;;;4591186;19;20030;-28
2022/10/15 03:43:46;;;;;;;30.17;26.25;;;17.00;99.90;;;;;;4591559;19;20022;-28
2022/10/15 03:45:18;;;;;;;32.78;27.48;;;17.00;99.90;;;;;;4592744;19;20011;-28
2022/10/15 03:46:50;;;;;;;31.75;26.13;;;17.00;99.90;;;;;;4593097;19;20010;-28
2022/10/15 03:48:21;;;;;;;31.75;26.58;;;17.00;99.90;;;;;;4591735;19;20023;-28
2022/10/15 03:49:53;;;;;;;36.58;28.27;;;17.00;99.90;;;;;;4592952;19;20010;-28
2022/10/15 03:51:24;;;;;;;32.10;27.98;;;17.00;99.90;;;;;;4593439;19;20045;-28
2022/10/15 03:52:55;;;;;;;34.60;30.60;;;17.00;99.90;;;;;;4591798;19;20516;-28
2022/10/15 03:54:26;;;;;;;32.03;28.58;;;17.00;99.90;;;;;;4591859;19;20026;-27
2022/10/15 03:56:03;;;;;;;31.90;28.17;;;17.00;99.90;;;;;;4592742;19;20014;-28
2022/10/15 03:57:34;;;;;;;33.88;28.65;;;17.00;99.90;;;;;;4591993;19;20014;-28
2022/10/15 03:59:05;;;;;;;32.70;28.20;;;17.00;99.90;;;;;;4591825;19;20077;-28
2022/10/15 04:00:39;;;;;;;32.78;27.45;;;17.00;99.90;;;;;;4591505;19;20010;-28
2022/10/15 04:02:11;;;;;;;30.50;27.20;;;17.00;99.90;;;;;;4593457;19;20027;-27
2022/10/15 04:03:42;;;;;;;31.98;26.73;;;17.00;99.90;;;;;;4591774;19;20057;-28
2022/10/15 04:05:12;;;;;;;33.20;27.35;;;17.00;99.90;;;;;;4593637;19;20018;-28
2022/10/15 04:06:46;;;;;;;32.80;27.25;;;17.00;99.90;;;;;;4593799;19;20014;-27
2022/10/15 04:08:18;;;;;;;32.92;28.55;;;17.00;99.90;;;;;;4592051;19;20018;-28
2022/10/15 04:09:49;;;;;;;32.20;27.38;;;17.00;99.90;;;;;;4591934;19;20026;-28
2022/10/15 04:11:20;;;;;;;33.05;28.38;;;17.00;99.90;;;;;;4593149;19;20361;-28
2022/10/15 04:12:51;;;;;;;33.30;28.38;;;17.00;99.90;;;;;;4590754;19;20338;-28
2022/10/15 04:14:22;;;;;;;29.58;25.75;;;17.00;99.90;;;;;;4589858;19;20017;-28
2022/10/15 04:15:54;;;;;;;31.25;26.33;;;17.00;99.90;;;;;;4592586;19;20027;-28
2022/10/15 04:17:25;;;;;;;31.20;26.00;;;17.00;99.90;;;;;;4592824;19;20015;-28
2022/10/15 04:18:57;;;;;;;30.25;26.95;;;17.00;99.90;;;;;;4590159;19;20022;-27
2022/10/15 04:20:29;;;;;;;32.80;27.73;;;17.00;99.90;;;;;;4592669;19;20029;-28
2022/10/15 04:22:00;;;;;;;30.50;26.42;;;17.00;99.90;;;;;;4591138;19;20014;-28
2022/10/15 04:23:31;;;;;;;31.80;27.00;;;17.00;99.90;;;;;;4591520;19;20014;-28
2022/10/15 04:25:02;;;;;;;30.33;26.27;;;17.00;99.90;;;;;;4591825;19;20014;-28
2022/10/15 04:26:34;;;;;;;33.45;27.38;;;17.00;99.90;;;;;;4590983;19;20018;-28
2022/10/15 04:28:05;;;;;;;32.75;27.13;;;17.00;99.90;;;;;;4590072;19;20014;-27
2022/10/15 04:29:36;;;;;;;30.50;27.23;;;17.00;99.90;;;;;;4590540;19;20105;-28
2022/10/15 04:31:07;;;;;;;32.60;27.15;;;17.00;99.90;;;;;;4592147;19;20480;-28
2022/10/15 04:32:39;;;;;;;30.80;25.30;;;17.00;99.90;;;;;;4590897;19;20045;-28
2022/10/15 04:34:10;;;;;;;34.20;28.73;;;17.00;99.90;;;;;;4589816;19;20015;-28
2022/10/15 04:35:41;;;;;;;31.73;26.85;;;17.00;99.90;;;;;;4591649;19;20091;-27
2022/10/15 04:37:12;;;;;;;29.88;26.40;;;17.00;99.90;;;;;;4590148;19;20018;-28
2022/10/15 04:38:44;;;;;;;29.30;26.27;;;17.00;99.90;;;;;;4590873;19;20352;-27
2022/10/15 04:40:16;;;;;;;34.03;28.38;;;17.00;99.90;;;;;;4590183;19;20487;-27
2022/10/15 04:41:47;;;;;;;32.67;27.50;;;17.00;99.90;;;;;;4591207;19;20025;-26
2022/10/15 04:43:19;;;;;;;31.55;26.35;;;17.00;99.90;;;;;;4588841;19;20015;-27
2022/10/15 04:44:50;;;;;;;36.50;28.45;;;17.00;99.90;;;;;;4588949;19;20015;-27
2022/10/15 04:46:21;;;;;;;32.45;28.00;;;17.00;99.90;;;;;;4590074;19;20018;-27
2022/10/15 04:47:52;;;;;;;33.42;28.63;;;17.00;99.90;;;;;;4590158;19;20010;-27
2022/10/15 04:49:24;;;;;;;29.55;25.75;;;17.10;99.90;;;;;;4591187;19;20118;-27
2022/10/15 04:51:01;;;;;;;;;;;17.10;99.90;;;;;;4591831;19;20015;-27
2022/10/15 04:52:33;;;;;;;31.60;27.17;;;17.20;99.90;;;;;;4590016;19;19922;-26
2022/10/15 04:54:05;;;;;;;30.90;26.55;;;17.20;99.90;;;;;;4589148;19;20119;-27
2022/10/15 04:55:36;;;;;;;33.13;29.08;;;17.30;99.90;;;;;;4590524;19;20014;-26
2022/10/15 04:57:08;;;;;;;31.55;27.88;;;17.30;99.90;;;;;;4591361;19;20460;-27
2022/10/15 04:58:39;;;;;;;30.08;26.77;;;17.30;99.90;;;;;;4591296;19;20014;-27
2022/10/15 05:00:11;;;;;;;32.42;27.95;;;17.30;99.90;;;;;;4592044;19;20070;-27
2022/10/15 05:01:42;;;;;;;30.00;26.80;;;17.30;99.90;;;;;;4590245;19;20038;-27
2022/10/15 05:03:13;;;;;;;;;;;17.40;99.90;;;;;;4591210;19;20015;-27
2022/10/15 05:04:45;;;;;;;31.13;27.80;;;17.40;99.90;;;;;;4590876;19;19910;-27
2022/10/15 05:06:19;;;;;;;31.73;28.23;;;17.40;99.90;;;;;;4591482;19;20022;-26
2022/10/15 05:07:53;;;;;;;31.30;26.98;;;17.40;99.90;;;;;;4589379;19;20485;-27
2022/10/15 05:09:25;;;;;;;33.55;29.48;;;17.40;99.90;;;;;;4590867;19;20018;-27
2022/10/15 05:11:01;;;;;;;32.50;28.38;;;17.40;99.90;;;;;;4589037;19;20022;-27
2022/10/15 05:12:32;;;;;;;32.00;27.65;;;17.40;99.90;;;;;;4590895;19;20031;-27
2022/10/15 05:14:03;;;;;;;32.80;27.52;;;17.40;99.90;;;;;;4589423;19;20085;-27
2022/10/15 05:15:35;;;;;;;35.63;28.67;;;17.50;99.90;;;;;;4590608;19;20019;-27
2022/10/15 05:17:06;;;;;;;33.10;29.45;;;17.50;99.90;;;;;;4590328;19;20022;-26
2022/10/15 05:18:38;;;;;;;33.70;28.95;;;17.60;99.90;;;;;;4590189;19;20353;-27
2022/10/15 05:20:09;;;;;;;;;;;17.60;99.90;;;;;;4591759;19;20011;-27
2022/10/15 05:21:40;;;;;;;31.77;28.10;;;17.60;99.90;;;;;;4590197;19;19923;-26
2022/10/15 05:23:12;;;;;;;31.13;27.67;;;17.60;99.90;;;;;;4590458;19;20010;-27
2022/10/15 05:24:43;;;;;;;35.50;29.58;;;17.60;99.90;;;;;;4589884;19;20046;-26
2022/10/15 05:26:20;;;;;;;32.53;28.83;;;17.60;99.90;;;;;;4590682;19;20681;-27
2022/10/15 05:27:51;;;;;;;33.70;28.02;;;17.60;99.90;;;;;;4590785;19;20074;-26
2022/10/15 05:29:22;;;;;;;32.28;28.05;;;17.60;99.90;;;;;;4590132;19;20018;-26
2022/10/15 05:30:54;;;;;;;33.00;29.50;;;17.60;99.90;;;;;;4589410;19;20022;-27
2022/10/15 05:32:26;;;;;;;35.80;30.48;;;17.60;99.90;;;;;;4589044;19;20473;-27
2022/10/15 05:33:58;;;;;;;36.70;31.08;;;17.60;99.90;;;;;;4589169;19;20022;-27
2022/10/15 05:35:29;;;;;;;37.67;32.50;;;17.60;99.90;;;;;;4589148;19;20045;-27
2022/10/15 05:37:00;;;;;;;32.88;29.30;;;17.60;99.90;;;;;;4590913;19;20031;-26
2022/10/15 05:38:31;;;;;;;34.03;30.27;;;17.60;99.90;;;;;;4590436;19;20021;-27
2022/10/15 05:40:03;;;;;;;;;;;17.60;99.90;;;;;;4589060;19;20361;-27
2022/10/15 05:41:34;;;;;;;36.43;30.33;;;17.60;99.90;;;;;;4591492;19;19934;-26
2022/10/15 05:43:05;;;;;;;38.83;31.55;;;17.60;99.90;;;;;;4590386;19;20022;-27
2022/10/15 05:44:38;;;;;;;34.42;30.67;;;17.60;99.90;;;;;;4590289;19;20078;-27
2022/10/15 05:46:10;;;;;;;36.40;31.92;;;17.60;99.90;;;;;;4589655;19;20358;-27
2022/10/15 05:47:41;;;;;;;36.17;32.25;;;17.60;99.90;;;;;;4589441;19;20025;-27
2022/10/15 05:49:12;;;;;;;38.35;32.75;;;17.60;99.90;;;;;;4590136;19;20049;-26
2022/10/15 05:50:44;;;;;;;36.17;32.08;;;17.50;99.90;;;;;;4588942;19;20014;-27
2022/10/15 05:52:15;;;;;;;40.05;34.00;;;17.50;99.90;;;;;;4589986;19;20015;-27
2022/10/15 05:53:47;;;;;;;39.13;34.58;;;17.50;99.90;;;;;;4589202;19;20019;-27
2022/10/15 05:55:18;;;;;;;38.47;34.28;;;17.60;99.90;;;;;;4587713;19;20015;-27
2022/10/15 05:56:49;;;;;;;39.65;35.00;;;17.50;99.90;;;;;;4590121;19;20373;-27
2022/10/15 05:58:20;;;;;;;38.72;33.78;;;17.60;99.90;;;;;;4589595;19;20014;-27
2022/10/15 05:59:51;;;;;;;39.63;33.28;;;17.50;99.90;;;;;;4588490;19;20014;-26
2022/10/15 06:01:23;;;;;;;38.75;33.33;;;17.40;99.90;;;;;;4589245;19;20018;-27
2022/10/15 06:02:54;;;;;;;36.05;32.00;;;17.40;99.90;;;;;;4587311;19;20015;-27
2022/10/15 06:04:25;;;;;;;39.75;33.05;;;17.40;99.90;;;;;;4587327;19;20022;-26
2022/10/15 06:05:56;;;;;;;39.35;33.38;;;17.30;99.90;;;;;;4588410;19;20018;-27
2022/10/15 06:07:28;;;;;;;37.28;32.55;;;17.30;99.90;;;;;;4588094;19;20022;-26
2022/10/15 06:09:00;;;;;;;36.95;32.15;;;17.30;99.90;;;;;;4590293;19;20026;-26
2022/10/15 06:10:35;;;;;;;36.60;31.20;;;17.20;99.90;;;;;;4588905;19;20026;-26
2022/10/15 06:12:06;;;;;;;38.05;31.42;;;17.20;99.90;;;;;;4590290;19;20006;-26
2022/10/15 06:13:40;;;;;;;37.72;33.28;;;17.20;99.90;;;;;;4588619;19;20022;-27
2022/10/15 06:15:12;;;;;;;37.17;32.47;;;17.20;99.90;;;;;;4588841;19;20014;-26
2022/10/15 06:16:44;;;;;;;36.63;31.90;;;17.20;99.90;;;;;;4590155;19;20018;-26
2022/10/15 06:18:16;;;;;;;36.92;31.65;;;17.20;99.90;;;;;;4586098;19;20431;-27
2022/10/15 06:19:49;;;;;;;38.17;31.08;;;17.20;99.90;;;;;;4585725;19;20011;-27
2022/10/15 06:21:21;;;;;;;36.30;32.30;;;17.20;99.90;;;;;;4586260;19;20030;-27
2022/10/15 06:22:58;;;;;;;35.65;30.63;;;17.20;99.90;;;;;;4587884;19;20632;-27
2022/10/15 06:24:30;;;;;;;34.17;30.50;;;17.20;99.90;;;;;;4587482;19;20543;-27
2022/10/15 06:26:08;;;;;;;35.13;30.33;;;17.20;99.90;;;;;;4587046;19;20540;-27
2022/10/15 06:27:39;;;;;;;39.20;31.63;;;17.20;99.90;;;;;;4588018;19;20014;-27
2022/10/15 06:29:11;;;;;;;35.58;30.10;;;17.30;99.90;;;;;;4587147;19;20484;-27
2022/10/15 06:30:42;;;;;;;33.35;29.67;;;17.30;99.90;;;;;;4587080;19;20078;-27
2022/10/15 06:32:14;;;;;;;32.15;27.98;;;17.30;99.90;;;;;;4586623;19;20088;-26
2022/10/15 06:33:45;;;;;;;32.33;27.75;;;17.40;99.90;;;;;;4587315;19;20018;-26
2022/10/15 06:35:17;;;;;;;32.13;28.42;;;17.40;99.90;;;;;;4586376;19;20448;-27
2022/10/15 06:36:48;;;;;;;35.38;31.55;;;17.40;99.90;;;;;;4587250;19;20476;-27
2022/10/15 06:38:19;;;;;;;36.15;32.08;;;16.70;99.90;;;;;;4586920;19;20038;-27
2022/10/15 06:39:50;;;;;;;36.00;32.15;;;15.50;99.90;;;;;;4586643;19;20053;-27
2022/10/15 06:41:22;;;;;;;39.83;35.53;;;14.90;99.90;;;;;;4588375;19;20033;-27
2022/10/15 06:42:53;;;;;;;36.88;32.25;;;14.60;99.90;;;;;;4587710;19;20021;-27
2022/10/15 06:44:24;;;;;;;37.85;32.78;;;14.50;99.90;;;;;;4586066;19;20485;-27
2022/10/15 06:45:57;;;;;;;38.55;31.73;;;14.40;99.90;;;;;;4587285;19;20617;-27
2022/10/15 06:47:28;;;;;;;36.08;32.15;;;14.40;99.90;;;;;;4588035;19;20028;-27
2022/10/15 06:48:59;;;;;;;41.22;33.72;;;14.30;99.90;;;;;;4586543;19;20030;-26
2022/10/15 06:50:34;;;;;;;38.22;32.78;;;14.30;99.90;;;;;;4588175;19;20557;-27
2022/10/15 06:52:05;;;;;;;39.80;34.03;;;14.30;99.90;;;;;;4589243;19;20018;-27
2022/10/15 06:53:39;;;;;;;;;;;14.30;99.90;;;;;;4590627;19;20019;-27
2022/10/15 06:55:11;;;;;;;39.28;34.53;;;14.30;99.90;;;;;;4588218;19;20415;-27
2022/10/15 06:56:42;;;;;;;39.10;33.30;;;14.30;99.90;;;;;;4588801;19;20026;-27
2022/10/15 06:58:13;;;;;;;41.85;36.70;;;14.30;99.90;;;;;;4589626;19;20480;-27
2022/10/15 06:59:44;;;;;;;41.92;37.00;;;14.30;99.90;;;;;;4587643;19;20071;-26
2022/10/15 07:01:16;;;;;;;38.85;33.90;;;14.30;99.90;;;;;;4589968;19;20018;-27
2022/10/15 07:02:47;;;;;;;;;;;14.30;99.90;;;;;;4589283;19;20585;-27
2022/10/15 07:04:18;;;;;;;39.92;34.92;;;14.30;99.90;;;;;;4588225;19;19919;-27
2022/10/15 07:05:50;;;;;;;38.75;32.72;;;14.30;99.90;;;;;;4587862;19;20086;-27
2022/10/15 07:07:21;;;;;;;39.38;35.03;;;14.30;99.90;;;;;;4590247;19;20011;-28
2022/10/15 07:08:52;;;;;;;38.08;32.40;;;14.30;99.90;;;;;;4594662;19;20029;-27
2022/10/15 07:10:23;;;;;;;38.97;34.05;;;14.30;99.90;;;;;;4592201;19;20017;-27
2022/10/15 07:11:55;;;;;;;38.95;33.80;;;14.30;99.90;;;;;;4592494;19;20022;-27
2022/10/15 07:13:26;;;;;;;37.75;32.95;;;14.40;99.90;;;;;;4593130;19;20022;-27
2022/10/15 07:14:57;;;;;;;38.03;32.42;;;14.40;99.90;;;;;;4591513;19;20362;-27
2022/10/15 07:16:28;;;;;;;39.42;33.80;;;14.40;99.90;;;;;;4591181;19;20018;-27
2022/10/15 07:18:03;;;;;;;39.33;33.55;;;14.40;99.90;;;;;;4593886;19;20172;-27
2022/10/15 07:19:34;;;;;;;39.33;33.53;;;14.40;99.90;;;;;;4592898;19;20390;-27
2022/10/15 07:21:06;;;;;;;40.58;34.30;;;14.50;99.90;;;;;;4593077;19;20423;-26
2022/10/15 07:22:37;;;;;;;41.67;33.38;;;14.50;99.90;;;;;;4593372;19;20417;-27
2022/10/15 07:24:09;;;;;;;40.17;33.65;;;14.50;99.90;;;;;;4592292;19;20014;-27
2022/10/15 07:25:40;;;;;;;39.45;32.65;;;14.50;99.90;;;;;;4594810;19;20014;-27
2022/10/15 07:27:11;;;;;;;38.05;32.60;;;14.60;99.90;;;;;;4591757;19;20017;-27
2022/10/15 07:28:42;;;;;;;39.75;33.25;;;14.60;99.90;;;;;;4593508;19;20014;-27
2022/10/15 07:30:13;;;;;;;37.22;31.52;;;14.70;99.90;;;;;;4591197;19;20486;-27
2022/10/15 07:31:45;;;;;;;37.80;31.67;;;14.70;99.90;;;;;;4593039;19;20070;-27
2022/10/15 07:33:16;;;;;;;39.90;32.17;;;14.70;99.90;;;;;;4592541;19;20015;-27
2022/10/15 07:34:47;;;;;;;38.78;31.30;;;14.70;99.90;;;;;;4591768;19;20077;-28
2022/10/15 07:36:19;;;;;;;37.72;30.60;;;14.80;99.90;;;;;;4594570;19;20014;-27
2022/10/15 07:37:50;;;;;;;37.50;30.70;;;14.80;99.90;;;;;;4592796;19;20022;-27
2022/10/15 07:39:21;;;;;;;37.95;31.88;;;14.80;99.90;;;;;;4593232;19;20022;-27
2022/10/15 07:40:57;;;;;;;35.20;29.58;;;14.80;99.90;;;;;;4594194;19;20032;-27
2022/10/15 07:42:28;;;;;;;35.42;30.48;;;14.80;99.90;;;;;;4592706;19;20019;-27
2022/10/15 07:43:59;;;;;;;34.70;29.13;;;14.80;99.90;;;;;;4591289;19;20015;-28
2022/10/15 07:45:30;;;;;;;36.83;31.38;;;14.80;99.90;;;;;;4593808;19;20006;-27
2022/10/15 07:47:01;;;;;;;38.45;32.05;;;14.80;99.90;;;;;;4590994;19;20033;-27
2022/10/15 07:48:33;;;;;;;;;;;14.80;99.90;;;;;;4592545;19;20018;-26
2022/10/15 07:50:05;;;;;;;36.88;30.63;;;14.80;99.90;;;;;;4593392;19;20333;-27
2022/10/15 07:51:36;;;;;;;37.53;31.13;;;14.90;99.90;;;;;;4590654;19;20026;-27
2022/10/15 07:53:07;;;;;;;39.45;31.52;;;14.90;99.90;;;;;;4592597;19;20014;-27
2022/10/15 07:56:31;;;;;;;38.42;30.67;;;14.90;99.90;;;;;;4592095;19;20010;-27
2022/10/15 07:58:04;;;;;;;38.35;31.23;;;14.90;99.90;;;;;;4592957;19;20010;-27
2022/10/15 07:59:36;;;;;;;37.55;31.17;;;14.90;99.90;;;;;;4589988;19;20032;-27